Time;durP1;ratioP1;P1;durP2;ratioP2;P2;SDS_P1;SDS_P2;PMS_P1;PMS_P2;Temp;Humidity;BMP_temperature;BMP_pressure;BME280_temperature;BME280_humidity;BME280_pressure;Samples;Min_cycle;Max_cycle;Signal;HPM_P1;HPM_P2
2023/07/01 00:00:02;;;;;;;19.02;7.18;;;;;;;;;;4834208;29;20053;-75
2023/07/01 00:02:31;;;;;;;12.68;5.75;;;;;;;;;;4833675;29;20096;-75
2023/07/01 00:05:02;;;;;;;12.35;5.88;;;;;;;;;;4817361;29;20066;-75
2023/07/01 00:07:34;;;;;;;18.88;5.53;;;;;;;;;;4833173;29;20600;-74
2023/07/01 00:10:05;;;;;;;15.52;5.30;;;;;;;;;;4817803;29;20065;-75
2023/07/01 00:12:36;;;;;;;16.27;7.03;;;;;;;;;;4829861;29;20395;-74
2023/07/01 00:15:08;;;;;;;15.35;6.70;;;;;;;;;;4833741;29;20062;-73
2023/07/01 00:17:41;;;;;;;9.07;5.72;;;;;;;;;;4830040;29;20049;-75
2023/07/01 00:20:12;;;;;;;11.52;5.82;;;;;;;;;;4834953;29;20420;-73
2023/07/01 00:22:42;;;;;;;9.45;5.40;;;;;;;;;;4833957;29;20104;-73
2023/07/01 00:25:12;;;;;;;12.57;6.68;;;;;;;;;;4837196;29;20069;-73
2023/07/01 00:27:42;;;;;;;17.25;5.82;;;;;;;;;;4837385;29;20061;-74
2023/07/01 00:30:17;;;;;;;13.18;6.65;;;;;;;;;;4834902;29;20149;-74
2023/07/01 00:32:47;;;;;;;15.20;5.85;;;;;;;;;;4806157;29;20058;-74
2023/07/01 00:35:18;;;;;;;18.05;6.68;;;;;;;;;;4821896;29;20057;-74
2023/07/01 00:37:49;;;;;;;11.80;6.72;;;;;;;;;;4838234;29;20046;-73
2023/07/01 00:40:19;;;;;;;14.68;8.27;;;;;;;;;;4837688;29;20058;-73
2023/07/01 00:42:49;;;;;;;13.63;7.75;;;;;;;;;;4820966;29;20054;-74
2023/07/01 00:45:19;;;;;;;12.48;6.75;;;;;;;;;;4820700;29;20049;-73
2023/07/01 00:47:51;;;;;;;17.23;7.10;;;;;;;;;;4837873;29;20049;-72
2023/07/01 00:50:22;;;;;;;16.20;7.43;;;;;;;;;;4837928;29;20061;-74
2023/07/01 00:52:53;;;;;;;15.38;7.68;;;;;;;;;;4818646;29;20046;-74
2023/07/01 00:55:23;;;;;;;16.30;7.68;;;;;;;;;;4817655;29;20054;-73
2023/07/01 00:57:54;;;;;;;12.85;6.70;;;;;;;;;;4820815;29;20058;-74
2023/07/01 01:00:24;;;;;;;13.98;5.90;;;;;;;;;;4837740;29;20705;-75
2023/07/01 01:03:21;;;;;;;14.57;6.10;;;;;;;;;;4836256;29;20050;-73
2023/07/01 01:05:58;;;;;;;17.05;6.95;;;;;;;;;;4837110;29;20046;-73
2023/07/01 01:08:55;;;;;;;16.30;6.28;;;;;;;;;;4837907;29;20049;-74
2023/07/01 01:11:29;;;;;;;11.48;5.50;;;;;;;;;;4835987;29;20541;-74
2023/07/01 01:14:05;;;;;;;17.23;5.80;;;;;;;;;;4837467;29;20054;-73
2023/07/01 01:16:36;;;;;;;11.90;5.53;;;;;;;;;;4820337;29;20065;-73
2023/07/01 01:19:19;;;;;;;14.43;5.47;;;;;;;;;;4837717;29;20046;-74
2023/07/01 01:22:12;;;;;;;14.35;5.47;;;;;;;;;;4837472;29;20073;-74
2023/07/01 01:24:47;;;;;;;11.07;4.72;;;;;;;;;;4837268;29;20529;-73
2023/07/01 01:27:27;;;;;;;13.30;5.13;;;;;;;;;;4837442;29;20057;-73
2023/07/01 01:30:01;;;;;;;9.00;5.05;;;;;;;;;;4820072;29;20062;-73
2023/07/01 01:32:31;;;;;;;8.75;4.78;;;;;;;;;;4820341;29;20714;-73
2023/07/01 01:35:03;;;;;;;10.25;5.03;;;;;;;;;;4819465;29;20093;-73
2023/07/01 01:37:46;;;;;;;11.07;4.53;;;;;;;;;;4820086;29;20061;-73
2023/07/01 01:40:30;;;;;;;11.82;4.18;;;;;;;;;;4837416;29;20121;-73
2023/07/01 01:43:17;;;;;;;8.38;3.83;;;;;;;;;;4836712;29;20490;-73
2023/07/01 01:45:50;;;;;;;9.35;4.05;;;;;;;;;;4837297;29;20058;-73
2023/07/01 01:48:20;;;;;;;16.83;4.00;;;;;;;;;;4837283;29;20556;-74
2023/07/01 01:50:56;;;;;;;10.30;3.40;;;;;;;;;;4836955;29;20057;-74
2023/07/01 01:53:29;;;;;;;10.32;3.55;;;;;;;;;;4836690;29;20049;-73
2023/07/01 01:56:01;;;;;;;9.57;3.33;;;;;;;;;;4819868;29;20065;-74
2023/07/01 01:58:31;;;;;;;9.00;3.30;;;;;;;;;;4820449;29;20417;-74
2023/07/01 02:01:02;;;;;;;11.43;3.13;;;;;;;;;;4820454;29;20050;-73
2023/07/01 02:03:34;;;;;;;8.45;3.20;;;;;;;;;;4819499;29;20061;-73
2023/07/01 02:06:05;;;;;;;7.72;2.83;;;;;;;;;;4819503;29;20069;-73
2023/07/01 02:08:36;;;;;;;10.00;3.22;;;;;;;;;;4836684;29;20060;-73
2023/07/01 02:11:06;;;;;;;12.15;3.22;;;;;;;;;;4818890;29;20058;-74
2023/07/01 02:13:38;;;;;;;11.30;3.15;;;;;;;;;;4803814;29;20064;-73
2023/07/01 02:16:10;;;;;;;8.60;3.42;;;;;;;;;;4833594;29;20526;-74
2023/07/01 02:18:41;;;;;;;12.73;3.25;;;;;;;;;;4833207;29;20104;-74
2023/07/01 02:21:13;;;;;;;8.38;3.15;;;;;;;;;;4817099;29;20154;-74
2023/07/01 02:23:43;;;;;;;13.23;3.67;;;;;;;;;;4833526;29;20065;-74
2023/07/01 02:26:15;;;;;;;8.90;3.28;;;;;;;;;;4833030;29;20046;-74
2023/07/01 02:28:45;;;;;;;7.50;2.97;;;;;;;;;;4833540;29;20050;-74
2023/07/01 02:31:18;;;;;;;7.07;3.20;;;;;;;;;;4833879;29;20423;-74
2023/07/01 02:33:54;;;;;;;9.05;3.22;;;;;;;;;;4816386;29;20058;-74
2023/07/01 02:36:24;;;;;;;6.75;3.20;;;;;;;;;;4816577;29;20065;-73
2023/07/01 02:38:54;;;;;;;10.45;3.88;;;;;;;;;;4833406;29;20425;-73
2023/07/01 02:41:24;;;;;;;14.80;3.95;;;;;;;;;;4832967;29;20051;-73
2023/07/01 02:43:55;;;;;;;13.23;4.40;;;;;;;;;;4832788;29;20062;-73
2023/07/01 02:46:28;;;;;;;8.90;3.67;;;;;;;;;;4832515;29;20506;-73
2023/07/01 02:48:59;;;;;;;9.10;2.95;;;;;;;;;;4833093;29;20058;-73
2023/07/01 02:51:29;;;;;;;9.38;3.15;;;;;;;;;;4832947;29;20806;-73
2023/07/01 02:54:00;;;;;;;7.60;4.07;;;;;;;;;;4816363;29;20437;-73
2023/07/01 02:56:31;;;;;;;7.80;3.63;;;;;;;;;;4816996;29;20061;-72
2023/07/01 02:59:03;;;;;;;7.88;3.42;;;;;;;;;;4833150;29;20061;-73
2023/07/01 03:01:34;;;;;;;6.63;3.40;;;;;;;;;;4833225;29;20056;-73
2023/07/01 03:04:06;;;;;;;6.47;3.38;;;;;;;;;;4832689;29;20066;-73
2023/07/01 03:06:48;;;;;;;6.30;3.85;;;;;;;;;;4832656;29;20446;-74
2023/07/01 03:09:19;;;;;;;5.88;3.15;;;;;;;;;;4815967;29;20061;-73
2023/07/01 03:11:52;;;;;;;6.20;3.50;;;;;;;;;;4816093;29;20438;-73
2023/07/01 03:14:22;;;;;;;5.93;2.88;;;;;;;;;;4815611;29;20066;-74
2023/07/01 03:16:53;;;;;;;7.00;3.33;;;;;;;;;;4832268;29;20088;-73
2023/07/01 03:19:25;;;;;;;6.10;3.00;;;;;;;;;;4832684;29;20054;-73
2023/07/01 03:21:56;;;;;;;5.70;3.10;;;;;;;;;;4832634;29;20073;-74
2023/07/01 03:24:33;;;;;;;6.05;2.80;;;;;;;;;;4832096;29;20713;-74
2023/07/01 03:27:04;;;;;;;10.70;3.97;;;;;;;;;;4815817;29;20058;-73
2023/07/01 03:29:35;;;;;;;9.30;3.30;;;;;;;;;;4832326;29;20525;-73
2023/07/01 03:32:07;;;;;;;7.03;3.47;;;;;;;;;;4832389;29;20064;-73
2023/07/01 03:34:39;;;;;;;8.38;2.90;;;;;;;;;;4832827;29;20061;-74
2023/07/01 03:37:09;;;;;;;5.07;2.83;;;;;;;;;;4831832;29;20053;-73
2023/07/01 03:39:39;;;;;;;8.18;2.45;;;;;;;;;;4831981;29;20073;-74
2023/07/01 03:42:10;;;;;;;7.38;3.55;;;;;;;;;;4832230;29;20835;-74
2023/07/01 03:44:40;;;;;;;6.13;3.50;;;;;;;;;;4831893;29;20426;-73
2023/07/01 03:47:13;;;;;;;5.45;2.67;;;;;;;;;;4832217;29;20521;-74
2023/07/01 03:49:43;;;;;;;6.68;2.85;;;;;;;;;;4831417;29;20613;-73
2023/07/01 03:52:14;;;;;;;8.52;3.00;;;;;;;;;;4831592;29;20057;-73
2023/07/01 03:54:44;;;;;;;8.45;3.25;;;;;;;;;;4831762;29;20521;-74
2023/07/01 03:57:14;;;;;;;5.82;2.90;;;;;;;;;;4831543;29;20050;-73
2023/07/01 03:59:44;;;;;;;11.18;3.92;;;;;;;;;;4831860;29;20125;-73
2023/07/01 04:02:15;;;;;;;6.97;3.03;;;;;;;;;;4831616;29;20057;-73
2023/07/01 04:04:46;;;;;;;9.07;3.33;;;;;;;;;;4815619;29;20058;-73
2023/07/01 04:07:21;;;;;;;7.97;2.72;;;;;;;;;;4832224;29;20054;-74
2023/07/01 04:09:51;;;;;;;6.13;3.17;;;;;;;;;;4832075;29;20050;-73
2023/07/01 04:12:22;;;;;;;8.40;3.63;;;;;;;;;;4832346;29;20053;-74
2023/07/01 04:14:54;;;;;;;7.05;3.22;;;;;;;;;;4831717;29;20050;-73
2023/07/01 04:17:24;;;;;;;7.53;3.40;;;;;;;;;;4831336;29;20057;-73
2023/07/01 04:19:55;;;;;;;11.98;3.53;;;;;;;;;;4831752;29;20054;-74
2023/07/01 04:22:26;;;;;;;5.88;3.30;;;;;;;;;;4831689;29;20544;-73
2023/07/01 04:24:58;;;;;;;6.47;3.25;;;;;;;;;;4831523;29;20073;-73
2023/07/01 04:27:29;;;;;;;4.47;2.75;;;;;;;;;;4831446;29;20049;-73
2023/07/01 04:29:59;;;;;;;6.90;2.70;;;;;;;;;;4831581;29;20061;-73
2023/07/01 04:32:29;;;;;;;6.88;2.88;;;;;;;;;;4831562;29;20076;-73
2023/07/01 04:35:01;;;;;;;4.55;2.75;;;;;;;;;;4831637;29;20054;-73
2023/07/01 04:37:31;;;;;;;7.72;3.28;;;;;;;;;;4831684;29;20066;-73
2023/07/01 04:40:02;;;;;;;9.93;3.22;;;;;;;;;;4814856;29;20065;-73
2023/07/01 04:42:34;;;;;;;8.98;3.70;;;;;;;;;;4832067;29;20406;-73
2023/07/01 04:45:07;;;;;;;5.82;3.47;;;;;;;;;;4814814;29;20066;-73
2023/07/01 04:47:38;;;;;;;8.52;3.08;;;;;;;;;;4831462;29;20061;-73
2023/07/01 04:50:09;;;;;;;5.75;3.28;;;;;;;;;;4831397;29;20076;-73
2023/07/01 04:52:39;;;;;;;8.75;4.10;;;;;;;;;;4831271;29;20057;-73
2023/07/01 04:55:10;;;;;;;8.00;4.40;;;;;;;;;;4831421;29;20418;-75
2023/07/01 04:57:41;;;;;;;9.73;3.72;;;;;;;;;;4815202;29;20057;-74
2023/07/01 05:00:12;;;;;;;10.18;4.00;;;;;;;;;;4831238;29;20418;-75
2023/07/01 05:02:43;;;;;;;8.38;3.80;;;;;;;;;;4831070;29;20045;-75
2023/07/01 05:05:13;;;;;;;13.02;4.28;;;;;;;;;;4831075;29;20057;-74
2023/07/01 05:07:45;;;;;;;8.38;4.28;;;;;;;;;;4831044;29;20046;-74
2023/07/01 05:10:15;;;;;;;6.07;4.00;;;;;;;;;;4834089;29;20053;-75
2023/07/01 05:12:46;;;;;;;8.57;4.32;;;;;;;;;;4835311;29;20593;-74
2023/07/01 05:15:18;;;;;;;7.90;4.07;;;;;;;;;;4834763;29;20037;-74
2023/07/01 05:17:50;;;;;;;8.43;4.15;;;;;;;;;;4817198;29;20054;-75
2023/07/01 05:20:21;;;;;;;9.18;4.25;;;;;;;;;;4834853;29;20065;-75
2023/07/01 05:22:51;;;;;;;7.82;4.20;;;;;;;;;;4834867;29;20053;-74
2023/07/01 05:25:23;;;;;;;10.88;4.15;;;;;;;;;;4815733;29;20058;-74
2023/07/01 05:27:54;;;;;;;13.32;3.92;;;;;;;;;;4815937;29;20050;-74
2023/07/01 05:30:27;;;;;;;8.20;4.20;;;;;;;;;;4799312;29;20058;-74
2023/07/01 05:32:56;;;;;;;9.32;4.38;;;;;;;;;;4799058;29;20051;-75
2023/07/01 05:35:28;;;;;;;10.43;5.05;;;;;;;;;;4816054;29;20388;-73
2023/07/01 05:38:13;;;;;;;14.32;4.82;;;;;;;;;;4816113;29;20057;-75
2023/07/01 05:40:51;;;;;;;8.65;4.45;;;;;;;;;;4815949;29;20050;-75
2023/07/01 05:43:21;;;;;;;12.50;4.88;;;;;;;;;;4815829;29;20062;-75
2023/07/01 05:45:51;;;;;;;8.70;4.03;;;;;;;;;;4815399;29;20065;-74
2023/07/01 05:48:22;;;;;;;10.60;4.03;;;;;;;;;;4815702;29;20054;-74
2023/07/01 05:50:55;;;;;;;8.52;4.10;;;;;;;;;;4815577;29;20112;-74
2023/07/01 05:53:26;;;;;;;13.85;4.75;;;;;;;;;;4815727;29;20102;-75
2023/07/01 05:55:55;;;;;;;;;;;;;;;;;;4816230;29;20058;-75
2023/07/01 05:58:25;;;;;;;9.90;5.07;;;;;;;;;;4799641;29;19939;-77
2023/07/01 06:00:55;;;;;;;10.07;4.93;;;;;;;;;;4815395;29;20050;-75
2023/07/01 06:03:26;;;;;;;11.02;4.65;;;;;;;;;;4816015;29;20081;-74
2023/07/01 06:05:56;;;;;;;10.85;5.97;;;;;;;;;;4799880;29;20073;-75
2023/07/01 06:08:27;;;;;;;9.25;5.43;;;;;;;;;;4815424;29;20058;-74
2023/07/01 06:10:57;;;;;;;;;;;;;;;;;;4816460;29;20057;-74
2023/07/01 06:13:27;;;;;;;39.25;5.10;;;;;;;;;;4815265;29;19933;-74
2023/07/01 06:15:58;;;;;;;8.77;4.57;;;;;;;;;;4814974;29;20038;-75
2023/07/01 06:18:28;;;;;;;9.43;5.03;;;;;;;;;;4815409;29;20050;-74
2023/07/01 06:20:58;;;;;;;7.53;4.40;;;;;;;;;;4815028;29;20054;-74
2023/07/01 06:23:30;;;;;;;11.00;5.55;;;;;;;;;;4815074;29;20069;-74
2023/07/01 06:26:01;;;;;;;10.82;5.28;;;;;;;;;;4815103;29;20062;-74
2023/07/01 06:28:31;;;;;;;14.07;5.63;;;;;;;;;;4798737;29;20054;-74
2023/07/01 06:31:02;;;;;;;7.50;4.75;;;;;;;;;;4798647;29;20054;-74
2023/07/01 06:33:41;;;;;;;9.98;5.40;;;;;;;;;;4815158;29;20419;-74
2023/07/01 06:36:17;;;;;;;10.50;4.97;;;;;;;;;;4815059;29;20058;-74
2023/07/01 06:38:48;;;;;;;;;;;;;;;;;;4815362;29;20066;-74
2023/07/01 06:41:17;;;;;;;8.75;5.30;;;;;;;;;;4813341;29;20375;-75
2023/07/01 06:43:49;;;;;;;15.70;5.50;;;;;;;;;;4798960;29;20061;-74
2023/07/01 06:46:20;;;;;;;12.57;4.32;;;;;;;;;;4814730;29;20054;-74
2023/07/01 06:48:50;;;;;;;6.45;4.13;;;;;;;;;;4814433;29;20053;-75
2023/07/01 06:51:20;;;;;;;9.00;4.85;;;;;;;;;;4814788;29;20061;-74
2023/07/01 06:53:51;;;;;;;7.43;4.57;;;;;;;;;;4814710;29;20491;-75
2023/07/01 06:56:21;;;;;;;9.90;5.03;;;;;;;;;;4814679;29;20057;-74
2023/07/01 06:58:52;;;;;;;10.00;4.60;;;;;;;;;;4814949;29;20042;-74
2023/07/01 07:01:23;;;;;;;8.25;5.10;;;;;;;;;;4814586;29;20054;-75
2023/07/01 07:03:52;;;;;;;;;;;;;;;;;;4815286;29;20396;-74
2023/07/01 07:06:22;;;;;;;7.40;4.13;;;;;;;;;;4815001;29;19928;-75
2023/07/01 07:08:53;;;;;;;8.70;4.57;;;;;;;;;;4814599;29;20058;-75
2023/07/01 07:11:24;;;;;;;8.40;5.05;;;;;;;;;;4814629;29;20423;-74
2023/07/01 07:13:54;;;;;;;11.82;5.72;;;;;;;;;;4814334;29;20077;-74
2023/07/01 07:16:23;;;;;;;;;;;;;;;;;;4814823;29;20425;-74
2023/07/01 07:18:54;;;;;;;7.45;4.28;;;;;;;;;;4814187;29;19929;-74
2023/07/01 07:21:25;;;;;;;10.65;5.38;;;;;;;;;;4814057;29;20050;-74
2023/07/01 07:23:57;;;;;;;11.32;5.82;;;;;;;;;;4805743;29;20057;-74
2023/07/01 07:26:31;;;;;;;10.80;5.50;;;;;;;;;;4832906;29;20070;-74
2023/07/01 07:29:02;;;;;;;12.25;5.13;;;;;;;;;;4832483;29;20049;-74
2023/07/01 07:31:33;;;;;;;7.53;4.25;;;;;;;;;;4832327;29;20061;-74
2023/07/01 07:34:04;;;;;;;7.70;4.25;;;;;;;;;;4831997;29;20057;-74
2023/07/01 07:36:35;;;;;;;8.00;4.97;;;;;;;;;;4832132;29;20050;-74
2023/07/01 07:39:05;;;;;;;10.73;5.70;;;;;;;;;;4832135;29;20057;-74
2023/07/01 07:41:36;;;;;;;7.75;5.03;;;;;;;;;;4832160;29;20046;-74
2023/07/01 07:44:07;;;;;;;12.40;6.32;;;;;;;;;;4816111;29;20422;-75
2023/07/01 07:46:38;;;;;;;8.50;4.88;;;;;;;;;;4832189;29;20062;-74
2023/07/01 07:49:08;;;;;;;10.82;5.15;;;;;;;;;;4831907;29;20049;-74
2023/07/01 07:51:39;;;;;;;8.45;5.03;;;;;;;;;;4832017;29;20058;-74
2023/07/01 07:54:09;;;;;;;13.10;5.25;;;;;;;;;;4831790;29;20046;-74
2023/07/01 07:56:39;;;;;;;8.85;5.53;;;;;;;;;;4815077;29;20426;-74
2023/07/01 07:59:10;;;;;;;11.05;4.97;;;;;;;;;;4832034;29;20053;-75
2023/07/01 08:01:41;;;;;;;9.82;4.78;;;;;;;;;;4831063;29;20541;-74
2023/07/01 08:04:12;;;;;;;12.23;6.60;;;;;;;;;;4815473;29;20434;-75
2023/07/01 08:06:43;;;;;;;10.73;6.35;;;;;;;;;;4831958;29;20058;-75
2023/07/01 08:09:12;;;;;;;;;;;;;;;;;;4832489;29;20054;-75
2023/07/01 08:11:42;;;;;;;11.07;4.97;;;;;;;;;;4831562;29;19928;-74
2023/07/01 08:14:13;;;;;;;9.52;5.57;;;;;;;;;;4831817;29;20061;-75
2023/07/01 08:16:44;;;;;;;12.57;6.40;;;;;;;;;;4831385;29;20053;-74
2023/07/01 08:19:14;;;;;;;9.70;7.05;;;;;;;;;;4831778;29;20050;-74
2023/07/01 08:21:43;;;;;;;;;;;;;;;;;;4832687;29;20843;-74
2023/07/01 08:24:15;;;;;;;12.52;6.40;;;;;;;;;;4831299;29;19929;-74
2023/07/01 08:26:48;;;;;;;12.05;6.38;;;;;;;;;;4814920;29;20518;-74
2023/07/01 08:29:19;;;;;;;13.07;6.88;;;;;;;;;;4831855;29;20446;-76
2023/07/01 08:31:50;;;;;;;13.75;7.15;;;;;;;;;;4831659;29;20062;-74
2023/07/01 08:34:20;;;;;;;12.82;6.72;;;;;;;;;;4831877;29;20409;-74
2023/07/01 08:36:57;;;;;;;27.05;8.27;;;;;;;;;;4831595;29;20061;-75
2023/07/01 08:39:31;;;;;;;11.70;6.78;;;;;;;;;;4831674;29;20062;-74
2023/07/01 08:42:04;;;;;;;30.05;7.68;;;;;;;;;;4831045;29;20132;-74
2023/07/01 08:44:34;;;;;;;58.17;6.68;;;;;;;;;;4833290;29;20064;-74
2023/07/01 08:47:06;;;;;;;40.40;7.18;;;;;;;;;;4834869;29;20046;-74
2023/07/01 08:49:40;;;;;;;45.05;7.68;;;;;;;;;;4834599;29;20818;-74
2023/07/01 08:52:13;;;;;;;27.52;6.65;;;;;;;;;;4834513;29;20054;-75
2023/07/01 08:54:43;;;;;;;61.17;7.50;;;;;;;;;;4818834;29;20700;-74
2023/07/01 08:57:15;;;;;;;68.60;9.65;;;;;;;;;;4834870;29;20425;-75
2023/07/01 08:59:51;;;;;;;63.85;7.65;;;;;;;;;;4835045;29;20058;-74
2023/07/01 09:02:24;;;;;;;196.90;11.25;;;;;;;;;;4835221;29;20045;-74
2023/07/01 09:04:54;;;;;;;77.97;8.82;;;;;;;;;;4834427;29;20061;-75
2023/07/01 09:07:25;;;;;;;153.18;9.45;;;;;;;;;;4835572;29;20054;-74
2023/07/01 09:09:57;;;;;;;168.57;9.93;;;;;;;;;;4838648;29;20072;-74
2023/07/01 09:12:28;;;;;;;105.72;8.27;;;;;;;;;;4838262;29;20046;-74
2023/07/01 09:15:07;;;;;;;55.72;9.23;;;;;;;;;;4818001;29;20062;-74
2023/07/01 09:17:40;;;;;;;39.95;7.50;;;;;;;;;;4834918;29;20053;-75
2023/07/01 09:20:12;;;;;;;125.55;8.70;;;;;;;;;;4834859;29;20528;-75
2023/07/01 09:22:45;;;;;;;89.93;8.32;;;;;;;;;;4834538;29;20058;-74
2023/07/01 09:25:28;;;;;;;47.30;8.00;;;;;;;;;;4834490;29;20069;-74
2023/07/01 09:27:59;;;;;;;64.90;9.20;;;;;;;;;;4834485;29;20514;-74
2023/07/01 09:30:30;;;;;;;276.63;15.20;;;;;;;;;;4834287;29;20082;-74
2023/07/01 09:33:16;;;;;;;192.80;11.48;;;;;;;;;;4834518;29;20577;-74
2023/07/01 09:35:47;;;;;;;128.43;11.25;;;;;;;;;;4834186;29;20049;-74
2023/07/01 09:38:19;;;;;;;128.13;9.98;;;;;;;;;;4837630;29;20053;-74
2023/07/01 09:40:51;;;;;;;153.13;11.32;;;;;;;;;;4821025;29;20057;-74
2023/07/01 09:43:32;;;;;;;102.82;9.07;;;;;;;;;;4836948;29;20050;-74
2023/07/01 09:46:02;;;;;;;63.63;7.93;;;;;;;;;;4836892;29;20050;-74
2023/07/01 09:48:33;;;;;;;69.45;8.00;;;;;;;;;;4836023;29;20058;-74
2023/07/01 09:51:07;;;;;;;40.65;8.75;;;;;;;;;;4836996;29;20058;-74
2023/07/01 09:53:38;;;;;;;30.70;8.70;;;;;;;;;;4836977;29;20049;-74
2023/07/01 09:56:10;;;;;;;24.65;7.40;;;;;;;;;;4835646;29;20414;-74
2023/07/01 09:58:42;;;;;;;26.52;7.30;;;;;;;;;;4837226;29;20056;-74
2023/07/01 10:01:15;;;;;;;42.13;7.57;;;;;;;;;;4836362;29;20084;-74
2023/07/01 10:03:45;;;;;;;11.20;6.60;;;;;;;;;;4836827;29;20050;-74
2023/07/01 10:06:16;;;;;;;20.65;7.75;;;;;;;;;;4836254;29;20060;-74
2023/07/01 10:08:48;;;;;;;11.48;6.70;;;;;;;;;;4836785;29;20046;-74
2023/07/01 10:11:22;;;;;;;11.88;7.35;;;;;;;;;;4836453;29;20057;-74
2023/07/01 10:13:55;;;;;;;9.68;6.90;;;;;;;;;;4836326;29;20093;-74
2023/07/01 10:16:25;;;;;;;10.18;5.88;;;;;;;;;;4836268;29;20057;-74
2023/07/01 10:18:57;;;;;;;68.28;6.10;;;;;;;;;;4836071;29;20046;-74
2023/07/01 10:21:30;;;;;;;128.85;6.38;;;;;;;;;;4819047;29;20786;-75
2023/07/01 10:24:01;;;;;;;106.50;5.65;;;;;;;;;;4836415;29;20082;-74
2023/07/01 10:26:48;;;;;;;79.38;5.47;;;;;;;;;;4835629;29;20416;-75
2023/07/01 10:29:33;;;;;;;90.60;6.85;;;;;;;;;;4799434;29;20058;-73
2023/07/01 10:32:13;;;;;;;37.20;5.25;;;;;;;;;;4798663;29;20055;-73
2023/07/01 10:34:56;;;;;;;38.08;5.05;;;;;;;;;;4799921;29;20059;-73
2023/07/01 10:37:28;;;;;;;17.90;5.03;;;;;;;;;;4798938;29;20049;-76
2023/07/01 10:40:24;;;;;;;45.67;5.90;;;;;;;;;;4799340;29;20058;-73
2023/07/01 10:43:34;;;;;;;79.55;6.47;;;;;;;;;;4799186;29;20050;-73
2023/07/01 10:46:10;;;;;;;88.22;7.20;;;;;;;;;;4791087;29;20058;-74
2023/07/01 10:48:43;;;;;;;99.32;8.57;;;;;;;;;;4782239;29;20055;-75
2023/07/01 10:51:14;;;;;;;99.40;7.85;;;;;;;;;;4798920;29;20055;-74
2023/07/01 10:53:59;;;;;;;99.15;9.15;;;;;;;;;;4799379;29;20054;-74
2023/07/01 10:56:32;;;;;;;32.00;8.45;;;;;;;;;;4799263;29;20205;-74
2023/07/01 10:59:20;;;;;;;21.88;6.78;;;;;;;;;;4799441;29;20705;-74
2023/07/01 11:02:01;;;;;;;60.80;10.98;;;;;;;;;;4799348;29;20439;-75
2023/07/01 11:04:54;;;;;;;18.33;7.50;;;;;;;;;;4799320;29;20055;-75
2023/07/01 11:07:27;;;;;;;21.15;6.93;;;;;;;;;;4798202;29;20054;-75
2023/07/01 11:10:00;;;;;;;30.60;8.00;;;;;;;;;;4798832;29;20534;-73
2023/07/01 11:12:31;;;;;;;31.45;7.82;;;;;;;;;;4799092;29;20550;-75
2023/07/01 11:15:03;;;;;;;28.55;7.30;;;;;;;;;;4799132;29;20051;-75
2023/07/01 11:17:34;;;;;;;11.20;7.63;;;;;;;;;;4799661;29;20057;-74
2023/07/01 11:20:06;;;;;;;15.00;7.95;;;;;;;;;;4798631;29;20508;-75
2023/07/01 11:22:41;;;;;;;13.02;7.38;;;;;;;;;;4798923;29;20057;-75
2023/07/01 11:25:12;;;;;;;15.10;8.57;;;;;;;;;;4798135;29;20055;-75
2023/07/01 11:27:43;;;;;;;11.70;7.32;;;;;;;;;;4798805;29;20055;-74
2023/07/01 11:30:30;;;;;;;24.13;9.10;;;;;;;;;;4798805;29;20059;-75
2023/07/01 11:33:13;;;;;;;23.13;8.18;;;;;;;;;;4782455;29;20066;-73
2023/07/01 11:35:51;;;;;;;23.38;9.05;;;;;;;;;;4798883;29;20276;-74
2023/07/01 11:38:26;;;;;;;24.67;7.32;;;;;;;;;;4798610;29;20134;-74
2023/07/01 11:40:56;;;;;;;27.88;6.85;;;;;;;;;;4798212;29;20058;-76
2023/07/01 11:43:33;;;;;;;22.27;7.15;;;;;;;;;;4798452;29;20507;-75
2023/07/01 11:46:05;;;;;;;9.68;6.82;;;;;;;;;;4782696;29;20055;-74
2023/07/01 11:48:36;;;;;;;8.35;6.57;;;;;;;;;;4798859;29;20875;-74
2023/07/01 11:51:06;;;;;;;17.10;8.30;;;;;;;;;;4798863;29;20887;-74
2023/07/01 11:53:58;;;;;;;11.55;6.07;;;;;;;;;;4797896;29;20534;-74
2023/07/01 11:56:29;;;;;;;12.05;5.63;;;;;;;;;;4798645;29;20471;-75
2023/07/01 11:59:00;;;;;;;14.23;5.15;;;;;;;;;;4781421;29;20067;-75
2023/07/01 12:01:31;;;;;;;13.75;5.28;;;;;;;;;;4782185;29;20059;-76
2023/07/01 12:04:15;;;;;;;21.05;4.60;;;;;;;;;;4781958;29;20058;-74
2023/07/01 12:06:48;;;;;;;14.60;5.03;;;;;;;;;;4798139;29;20062;-77
2023/07/01 12:09:29;;;;;;;7.05;4.70;;;;;;;;;;4798282;29;20059;-74
2023/07/01 12:11:59;;;;;;;10.48;6.43;;;;;;;;;;4798238;29;20380;-75
2023/07/01 12:14:31;;;;;;;12.77;5.47;;;;;;;;;;4798091;29;20054;-74
2023/07/01 12:17:02;;;;;;;8.40;6.03;;;;;;;;;;4798291;29;20391;-73
2023/07/01 12:19:34;;;;;;;12.43;6.50;;;;;;;;;;4781231;29;20532;-73
2023/07/01 12:22:04;;;;;;;8.23;6.10;;;;;;;;;;4798377;29;20058;-73
2023/07/01 12:24:35;;;;;;;12.48;6.22;;;;;;;;;;4781361;29;20489;-76
2023/07/01 12:27:06;;;;;;;9.73;5.90;;;;;;;;;;4797620;29;20062;-74
2023/07/01 12:29:36;;;;;;;7.80;5.63;;;;;;;;;;4797669;29;20055;-74
2023/07/01 12:32:09;;;;;;;13.35;7.13;;;;;;;;;;4798070;29;20423;-74
2023/07/01 12:34:40;;;;;;;7.32;5.40;;;;;;;;;;4798157;29;20062;-74
2023/07/01 12:37:11;;;;;;;7.47;4.50;;;;;;;;;;4798409;29;20051;-74
2023/07/01 12:39:44;;;;;;;7.10;4.63;;;;;;;;;;4798353;29;20050;-74
2023/07/01 12:42:15;;;;;;;5.25;4.35;;;;;;;;;;4798237;29;20047;-74
2023/07/01 12:44:46;;;;;;;10.85;5.93;;;;;;;;;;4798216;29;20503;-74
2023/07/01 12:47:19;;;;;;;11.30;5.35;;;;;;;;;;4797524;29;20058;-74
2023/07/01 12:49:50;;;;;;;9.07;4.72;;;;;;;;;;4797546;29;20047;-74
2023/07/01 12:52:20;;;;;;;7.60;5.35;;;;;;;;;;4797090;29;20067;-74
2023/07/01 12:54:52;;;;;;;9.68;5.22;;;;;;;;;;4798092;29;20503;-73
2023/07/01 12:57:23;;;;;;;20.08;4.85;;;;;;;;;;4798111;29;20526;-75
2023/07/01 12:59:57;;;;;;;18.50;9.65;;;;;;;;;;4798003;29;20066;-74
2023/07/01 13:02:28;;;;;;;10.52;6.47;;;;;;;;;;4797660;29;20055;-74
2023/07/01 13:05:03;;;;;;;11.35;6.75;;;;;;;;;;4797672;29;20428;-74
2023/07/01 13:07:34;;;;;;;10.95;6.35;;;;;;;;;;4781619;29;20418;-74
2023/07/01 13:10:05;;;;;;;9.60;6.22;;;;;;;;;;4797897;29;20058;-74
2023/07/01 13:12:36;;;;;;;13.05;6.07;;;;;;;;;;4797410;29;20515;-74
2023/07/01 13:15:26;;;;;;;13.55;6.47;;;;;;;;;;4797713;29;20879;-74
2023/07/01 13:17:59;;;;;;;8.82;5.53;;;;;;;;;;4781869;29;20051;-76
2023/07/01 13:20:29;;;;;;;14.20;5.60;;;;;;;;;;4797822;29;20058;-74
2023/07/01 13:23:01;;;;;;;8.60;5.68;;;;;;;;;;4796721;29;20538;-74
2023/07/01 13:25:32;;;;;;;11.05;5.65;;;;;;;;;;4779438;29;20051;-74
2023/07/01 13:28:04;;;;;;;8.45;4.85;;;;;;;;;;4778979;30;20063;-74
2023/07/01 13:30:47;;;;;;;7.97;4.97;;;;;;;;;;4764487;30;20050;-75
2023/07/01 13:33:26;;;;;;;5.25;4.57;;;;;;;;;;4781760;30;20077;-74
2023/07/01 13:36:00;;;;;;;8.77;5.50;;;;;;;;;;4782671;30;20051;-75
2023/07/01 13:38:30;;;;;;;7.85;5.47;;;;;;;;;;4783079;30;20066;-74
2023/07/01 13:41:00;;;;;;;7.68;5.28;;;;;;;;;;4766666;30;20067;-74
2023/07/01 13:43:30;;;;;;;14.48;5.80;;;;;;;;;;4782833;30;20058;-77
2023/07/01 13:46:00;;;;;;;8.52;5.43;;;;;;;;;;4781265;30;20066;-74
2023/07/01 13:48:41;;;;;;;10.52;6.07;;;;;;;;;;4781494;30;20059;-75
2023/07/01 13:51:12;;;;;;;9.70;5.88;;;;;;;;;;4782541;30;20051;-75
2023/07/01 13:53:43;;;;;;;10.63;6.07;;;;;;;;;;4782853;30;20162;-74
2023/07/01 13:56:18;;;;;;;12.85;7.55;;;;;;;;;;4782826;30;20051;-74
2023/07/01 13:58:49;;;;;;;9.20;6.57;;;;;;;;;;4782220;30;20613;-74
2023/07/01 14:01:19;;;;;;;8.80;5.53;;;;;;;;;;4765472;30;20527;-75
2023/07/01 14:03:59;;;;;;;10.07;6.60;;;;;;;;;;4781216;30;20062;-74
2023/07/01 14:06:31;;;;;;;9.13;5.88;;;;;;;;;;4780785;30;20552;-74
2023/07/01 14:09:06;;;;;;;;;;;;;;;;;;4782440;30;20051;-73
2023/07/01 14:11:36;;;;;;;11.65;6.47;;;;;;;;;;4782557;30;19936;-74
2023/07/01 14:14:06;;;;;;;9.50;7.30;;;;;;;;;;4765013;30;20416;-74
2023/07/01 14:16:36;;;;;;;9.82;6.85;;;;;;;;;;4782386;30;20047;-76
2023/07/01 14:19:07;;;;;;;12.65;6.85;;;;;;;;;;4779857;30;20062;-77
2023/07/01 14:21:38;;;;;;;10.38;6.05;;;;;;;;;;4780647;30;20066;-74
2023/07/01 14:24:19;;;;;;;9.85;6.63;;;;;;;;;;4790807;29;20066;-74
2023/07/01 14:26:55;;;;;;;9.15;6.40;;;;;;;;;;4799861;29;20061;-74
2023/07/01 14:29:25;;;;;;;19.38;7.03;;;;;;;;;;4800298;29;20057;-74
2023/07/01 14:31:58;;;;;;;12.73;8.85;;;;;;;;;;4783569;29;20054;-73
2023/07/01 14:34:39;;;;;;;11.45;9.13;;;;;;;;;;4800547;29;20051;-75
2023/07/01 14:37:13;;;;;;;16.05;9.70;;;;;;;;;;4799385;29;20077;-74
2023/07/01 14:39:48;;;;;;;16.23;10.57;;;;;;;;;;4783441;29;20066;-74
2023/07/01 14:42:28;;;;;;;13.52;10.10;;;;;;;;;;4798825;29;20509;-74
2023/07/01 14:44:59;;;;;;;18.40;12.45;;;;;;;;;;4799519;29;20051;-74
2023/07/01 14:47:30;;;;;;;19.73;12.52;;;;;;;;;;4800949;29;20046;-75
2023/07/01 14:50:01;;;;;;;24.02;13.20;;;;;;;;;;4799566;29;20065;-74
2023/07/01 14:52:32;;;;;;;23.15;14.30;;;;;;;;;;4783669;29;20054;-73
2023/07/01 14:55:04;;;;;;;28.85;16.52;;;;;;;;;;4799128;29;20057;-74
2023/07/01 14:57:35;;;;;;;31.38;18.30;;;;;;;;;;4798849;29;20051;-74
2023/07/01 15:00:06;;;;;;;33.45;19.77;;;;;;;;;;4783956;29;20055;-76
2023/07/01 15:02:39;;;;;;;39.08;19.73;;;;;;;;;;4799085;29;20165;-75
2023/07/01 15:05:10;;;;;;;30.90;19.05;;;;;;;;;;4799258;29;20047;-74
2023/07/01 15:07:47;;;;;;;36.35;20.15;;;;;;;;;;4797567;29;20062;-75